Time;durP1;ratioP1;P1;durP2;ratioP2;P2;SDS_P1;SDS_P2;PMS_P1;PMS_P2;Temp;Humidity;BMP_temperature;BMP_pressure;BME280_temperature;BME280_humidity;BME280_pressure;Samples;Min_cycle;Max_cycle;Signal;HPM_P1;HPM_P2
2022/05/12 00:02:04;;;;;;;8.32;2.95;;;22.30;74.00;;;;;;5116164;28;20073;-67
2022/05/12 00:04:31;;;;;;;4.40;2.60;;;22.30;74.50;;;;;;5116028;28;20019;-68
2022/05/12 00:06:58;;;;;;;4.63;2.83;;;22.20;74.80;;;;;;5115961;28;20031;-67
2022/05/12 00:09:25;;;;;;;3.35;2.67;;;22.20;76.20;;;;;;5114590;28;20070;-67
2022/05/12 00:11:51;;;;;;;3.90;2.80;;;22.20;76.10;;;;;;5115835;28;20028;-67
2022/05/12 00:14:17;;;;;;;4.60;3.10;;;22.20;76.50;;;;;;5115859;28;20027;-67
2022/05/12 00:16:43;;;;;;;5.10;2.80;;;22.20;76.90;;;;;;5118416;28;20035;-67
2022/05/12 00:19:08;;;;;;;3.90;2.85;;;22.20;77.10;;;;;;5121346;28;20046;-67
2022/05/12 00:21:34;;;;;;;8.50;3.13;;;22.30;77.30;;;;;;5114530;28;20019;-68
2022/05/12 00:24:00;;;;;;;4.72;2.67;;;22.30;77.90;;;;;;5115996;28;20363;-68
2022/05/12 00:26:28;;;;;;;4.93;2.65;;;22.30;77.80;;;;;;5115620;28;20027;-68
2022/05/12 00:28:55;;;;;;;5.65;2.83;;;22.30;78.20;;;;;;5115290;28;20085;-68
2022/05/12 00:31:21;;;;;;;5.57;2.70;;;22.30;78.50;;;;;;5116108;28;20379;-67
2022/05/12 00:33:47;;;;;;;6.10;3.10;;;22.40;78.50;;;;;;5116092;28;20024;-68
2022/05/12 00:36:13;;;;;;;5.18;3.25;;;22.30;78.70;;;;;;5116699;28;20103;-67
2022/05/12 00:38:39;;;;;;;;;;;22.30;79.00;;;;;;5116636;28;20057;-67
2022/05/12 00:41:05;;;;;;;4.10;2.40;;;22.30;79.10;;;;;;5115582;28;19908;-67
2022/05/12 00:43:37;;;;;;;;;;;22.30;79.10;;;;;;5114192;28;20020;-67
2022/05/12 00:46:05;;;;;;;4.75;2.65;;;22.30;79.10;;;;;;5114771;28;19919;-68
2022/05/12 00:48:31;;;;;;;5.00;2.70;;;22.30;79.30;;;;;;5114897;28;20372;-68
2022/05/12 00:50:56;;;;;;;5.60;2.97;;;22.20;79.50;;;;;;5115025;28;20032;-67
2022/05/12 00:53:22;;;;;;;4.80;2.70;;;22.20;79.50;;;;;;5114969;28;20027;-67
2022/05/12 00:55:50;;;;;;;3.78;2.90;;;22.10;79.30;;;;;;5114890;28;20042;-67
2022/05/12 00:58:18;;;;;;;3.80;2.65;;;22.10;79.30;;;;;;5114992;28;20016;-67
2022/05/12 01:00:44;;;;;;;5.10;2.47;;;22.00;79.10;;;;;;5114796;28;20032;-67
2022/05/12 01:03:18;;;;;;;4.00;2.10;;;22.00;78.60;;;;;;5115341;28;20080;-67
2022/05/12 01:05:44;;;;;;;3.55;2.45;;;22.00;78.50;;;;;;5113105;28;20028;-67
2022/05/12 01:08:13;;;;;;;4.05;2.10;;;21.90;78.00;;;;;;5113128;28;20435;-68
2022/05/12 01:10:40;;;;;;;6.47;2.63;;;22.00;78.00;;;;;;5114455;28;20055;-67
2022/05/12 01:13:07;;;;;;;4.45;2.35;;;22.00;77.40;;;;;;5114705;28;20076;-67
2022/05/12 01:15:32;;;;;;;2.90;1.92;;;21.90;77.30;;;;;;5114547;28;20111;-67
2022/05/12 01:18:10;;;;;;;3.88;1.80;;;21.90;77.30;;;;;;5114803;28;20058;-67
2022/05/12 01:20:38;;;;;;;3.15;2.25;;;21.90;77.20;;;;;;5114645;28;20115;-67
2022/05/12 01:23:21;;;;;;;6.93;2.67;;;21.90;77.00;;;;;;5112995;28;20024;-67
2022/05/12 01:25:46;;;;;;;3.53;2.20;;;21.80;77.00;;;;;;5114416;28;20081;-68
2022/05/12 01:28:12;;;;;;;5.47;2.35;;;21.80;77.00;;;;;;5114118;28;20422;-68
2022/05/12 01:30:37;;;;;;;3.05;2.03;;;21.80;76.90;;;;;;5113846;28;20079;-67
2022/05/12 01:33:04;;;;;;;5.07;2.20;;;21.70;76.90;;;;;;5115212;28;20506;-67
2022/05/12 01:35:32;;;;;;;4.25;2.45;;;21.70;77.00;;;;;;5114661;28;20028;-67
2022/05/12 01:37:58;;;;;;;2.78;1.65;;;21.60;77.10;;;;;;5116000;28;20020;-67
2022/05/12 01:40:24;;;;;;;3.90;2.20;;;21.60;77.10;;;;;;5116185;28;20165;-67
2022/05/12 01:42:51;;;;;;;3.42;2.10;;;21.60;77.10;;;;;;5114205;28;20059;-68
2022/05/12 01:45:17;;;;;;;11.48;2.55;;;21.60;77.10;;;;;;5115865;28;20568;-68
2022/05/12 01:47:43;;;;;;;4.00;2.17;;;21.60;77.10;;;;;;5115764;28;20055;-68
2022/05/12 01:50:10;;;;;;;5.05;1.70;;;21.60;77.20;;;;;;5114665;28;20024;-68
2022/05/12 01:52:39;;;;;;;5.22;1.90;;;21.50;77.50;;;;;;5114442;28;20039;-68
2022/05/12 01:55:05;;;;;;;4.53;2.28;;;21.60;77.60;;;;;;5112671;28;20023;-68
2022/05/12 01:57:30;;;;;;;;;;;21.50;77.90;;;;;;5113290;28;20472;-68
2022/05/12 01:59:56;;;;;;;4.15;2.00;;;21.50;78.00;;;;;;5114299;28;19908;-68
2022/05/12 02:02:23;;;;;;;8.10;2.05;;;21.50;78.20;;;;;;5114672;28;20044;-68
2022/05/12 02:04:49;;;;;;;4.20;2.15;;;21.40;78.80;;;;;;5115182;28;20024;-68
2022/05/12 02:07:16;;;;;;;4.72;2.05;;;21.40;79.60;;;;;;5113533;28;20543;-68
2022/05/12 02:09:41;;;;;;;4.32;2.00;;;21.40;80.00;;;;;;5114352;28;20028;-68
2022/05/12 02:12:08;;;;;;;3.95;2.25;;;21.30;80.10;;;;;;5115508;28;20476;-68
2022/05/12 02:14:34;;;;;;;5.75;1.83;;;21.30;80.60;;;;;;5115004;28;20043;-68
2022/05/12 02:17:00;;;;;;;5.40;1.73;;;21.30;80.80;;;;;;5114706;28;20357;-68
2022/05/12 02:19:27;;;;;;;4.97;2.28;;;21.30;80.90;;;;;;5114599;28;20495;-68
2022/05/12 02:21:54;;;;;;;4.22;2.45;;;21.30;81.00;;;;;;5114772;28;20019;-68
2022/05/12 02:24:20;;;;;;;2.78;1.80;;;21.30;81.10;;;;;;5114333;28;20020;-68
2022/05/12 02:26:46;;;;;;;3.22;2.25;;;21.20;81.10;;;;;;5114401;28;20023;-69
2022/05/12 02:29:11;;;;;;;5.03;1.80;;;21.30;80.90;;;;;;5113256;28;20314;-68
2022/05/12 02:31:37;;;;;;;3.90;2.33;;;21.20;81.10;;;;;;5114688;28;20032;-67
2022/05/12 02:34:03;;;;;;;3.17;2.00;;;21.10;81.30;;;;;;5114211;28;20505;-68
2022/05/12 02:36:28;;;;;;;4.28;1.67;;;21.10;81.50;;;;;;5113607;28;20051;-68
2022/05/12 02:38:54;;;;;;;3.45;1.70;;;21.00;82.00;;;;;;5111954;28;20468;-68
2022/05/12 02:41:19;;;;;;;4.47;2.13;;;21.00;82.10;;;;;;5113290;28;20019;-68
2022/05/12 02:43:45;;;;;;;4.97;1.60;;;20.90;82.10;;;;;;5117185;28;20031;-68
2022/05/12 02:46:12;;;;;;;3.38;1.83;;;20.90;82.30;;;;;;5117502;28;20037;-68
2022/05/12 02:48:46;;;;;;;5.55;2.13;;;20.80;82.40;;;;;;5118756;28;20027;-68
2022/05/12 02:51:13;;;;;;;5.18;1.90;;;20.80;82.50;;;;;;5118145;28;20143;-67
2022/05/12 02:53:39;;;;;;;6.82;1.60;;;20.70;82.80;;;;;;5118433;28;20047;-67
2022/05/12 02:56:06;;;;;;;6.10;1.75;;;20.70;83.20;;;;;;5118551;28;20063;-68
2022/05/12 02:58:33;;;;;;;5.60;1.75;;;20.60;83.10;;;;;;5118106;28;20038;-68
2022/05/12 03:00:59;;;;;;;2.22;1.48;;;20.60;83.50;;;;;;5116087;28;20460;-68
2022/05/12 03:03:25;;;;;;;2.72;1.77;;;20.60;84.00;;;;;;5117163;28;20035;-68
2022/05/12 03:05:51;;;;;;;2.53;1.58;;;20.50;84.00;;;;;;5116894;28;20035;-68
2022/05/12 03:08:18;;;;;;;2.95;1.30;;;20.50;83.90;;;;;;5115396;28;20507;-68
2022/05/12 03:10:43;;;;;;;2.92;1.60;;;20.40;84.00;;;;;;5116896;28;20031;-69
2022/05/12 03:13:09;;;;;;;2.03;1.25;;;20.40;84.20;;;;;;5117174;28;20031;-68
2022/05/12 03:15:35;;;;;;;3.33;1.20;;;20.40;84.40;;;;;;5116598;28;20060;-69
2022/05/12 03:18:01;;;;;;;3.20;1.88;;;20.40;84.40;;;;;;5116885;28;20028;-68
2022/05/12 03:20:29;;;;;;;3.08;1.60;;;20.30;84.40;;;;;;5116675;28;20479;-67
2022/05/12 03:22:54;;;;;;;4.28;1.70;;;20.30;84.90;;;;;;5116785;28;20016;-67
2022/05/12 03:25:21;;;;;;;3.65;1.70;;;20.30;85.00;;;;;;5116592;28;20085;-67
2022/05/12 03:27:47;;;;;;;;;;;20.30;85.20;;;;;;5116986;28;20036;-68
2022/05/12 03:30:20;;;;;;;5.88;1.33;;;20.20;85.40;;;;;;5116470;28;19957;-67
2022/05/12 03:32:46;;;;;;;3.08;1.60;;;20.20;85.40;;;;;;5115340;28;20118;-67
2022/05/12 03:35:12;;;;;;;5.95;1.88;;;20.20;86.10;;;;;;5116493;28;20103;-68
2022/05/12 03:37:38;;;;;;;;;;;20.10;86.00;;;;;;5115719;28;20031;-68
2022/05/12 03:40:06;;;;;;;2.47;1.23;;;20.10;86.80;;;;;;5116476;28;19904;-68
2022/05/12 03:42:31;;;;;;;3.25;1.60;;;20.00;86.90;;;;;;5116344;28;20035;-68
2022/05/12 03:44:59;;;;;;;2.55;1.10;;;19.90;87.40;;;;;;5116147;28;20032;-67
2022/05/12 03:47:33;;;;;;;2.13;1.23;;;19.90;87.90;;;;;;5114999;28;20019;-68
2022/05/12 03:50:03;;;;;;;3.67;1.30;;;19.80;88.30;;;;;;5116416;28;20028;-68
2022/05/12 03:52:30;;;;;;;3.65;1.25;;;19.80;88.70;;;;;;5116186;28;20024;-67
2022/05/12 03:54:56;;;;;;;2.92;1.40;;;19.70;89.00;;;;;;5116477;28;20016;-68
2022/05/12 03:57:23;;;;;;;3.42;1.60;;;19.70;89.50;;;;;;5117885;28;20124;-68
2022/05/12 03:59:49;;;;;;;6.13;1.65;;;19.70;90.00;;;;;;5118747;28;20023;-69
2022/05/12 04:02:16;;;;;;;4.22;1.40;;;19.60;90.10;;;;;;5121689;28;20027;-68
2022/05/12 04:04:43;;;;;;;3.72;1.40;;;19.60;90.30;;;;;;5119321;28;20139;-69
2022/05/12 04:07:14;;;;;;;2.10;1.38;;;19.60;90.50;;;;;;5119230;28;20027;-68
2022/05/12 04:09:40;;;;;;;2.45;1.40;;;19.60;90.70;;;;;;5118857;28;20383;-68
2022/05/12 04:12:09;;;;;;;2.08;1.10;;;19.60;90.70;;;;;;5119421;28;20440;-68
2022/05/12 04:14:35;;;;;;;2.47;1.30;;;19.50;91.00;;;;;;5118640;28;20199;-68
2022/05/12 04:17:01;;;;;;;2.13;1.50;;;19.50;91.30;;;;;;5120564;28;20030;-68
2022/05/12 04:19:28;;;;;;;3.67;1.20;;;19.50;91.60;;;;;;5128910;28;20039;-67
2022/05/12 04:21:53;;;;;;;5.63;1.40;;;19.50;91.80;;;;;;5128607;28;20380;-67
2022/05/12 04:24:19;;;;;;;2.20;1.40;;;19.40;92.00;;;;;;5128747;28;20023;-67
2022/05/12 04:26:46;;;;;;;2.70;1.50;;;19.40;92.30;;;;;;5125413;28;20448;-68
2022/05/12 04:29:12;;;;;;;5.63;1.65;;;19.40;92.60;;;;;;5126912;28;20024;-68
2022/05/12 04:31:38;;;;;;;5.57;1.38;;;19.40;92.60;;;;;;5123169;28;20027;-67
2022/05/12 04:36:48;;;;;;;2.30;1.20;;;19.40;93.20;;;;;;5119657;28;20038;-67
2022/05/12 04:39:14;;;;;;;4.20;1.52;;;19.40;93.50;;;;;;5117440;28;20051;-67
2022/05/12 04:41:39;;;;;;;4.82;1.60;;;19.50;93.50;;;;;;5116433;28;20035;-67
2022/05/12 04:44:06;;;;;;;5.18;1.67;;;19.50;93.80;;;;;;5120697;28;20035;-69
2022/05/12 04:46:34;;;;;;;5.78;1.77;;;19.60;93.60;;;;;;5120016;28;20039;-70
2022/05/12 04:49:00;;;;;;;4.47;1.55;;;19.80;93.50;;;;;;5118953;28;20020;-67
2022/05/12 04:51:26;;;;;;;3.42;1.35;;;19.70;94.00;;;;;;5115529;28;20019;-67
2022/05/12 04:53:51;;;;;;;2.35;1.10;;;19.70;93.80;;;;;;5115622;28;20057;-67
2022/05/12 04:56:17;;;;;;;3.40;1.50;;;19.70;94.00;;;;;;5115476;28;20020;-66
2022/05/12 04:58:43;;;;;;;3.40;1.42;;;19.70;94.10;;;;;;5113849;28;20069;-67
2022/05/12 05:01:08;;;;;;;3.15;1.50;;;19.70;94.30;;;;;;5114962;28;20034;-68
2022/05/12 05:03:34;;;;;;;2.55;1.52;;;19.70;94.40;;;;;;5115550;28;20027;-66
2022/05/12 05:06:00;;;;;;;2.35;1.48;;;19.70;94.60;;;;;;5114728;28;20471;-66
2022/05/12 05:08:26;;;;;;;3.85;1.30;;;19.60;94.70;;;;;;5115258;28;20043;-66
2022/05/12 05:10:55;;;;;;;2.55;1.40;;;19.70;94.80;;;;;;5115493;28;20038;-66
2022/05/12 05:13:22;;;;;;;2.80;1.30;;;19.70;95.10;;;;;;5115403;28;20035;-65
2022/05/12 05:15:49;;;;;;;3.63;1.05;;;19.70;95.20;;;;;;5114978;28;20030;-65
2022/05/12 05:18:17;;;;;;;1.45;1.08;;;19.60;95.20;;;;;;5115168;28;20047;-65
2022/05/12 05:20:44;;;;;;;3.55;1.20;;;19.70;95.50;;;;;;5113598;28;20467;-66
2022/05/12 05:23:11;;;;;;;5.47;1.38;;;19.70;95.70;;;;;;5114878;28;20030;-66
2022/05/12 05:25:38;;;;;;;3.28;1.40;;;19.70;95.80;;;;;;5114421;28;20032;-66
2022/05/12 05:28:05;;;;;;;2.38;1.40;;;19.70;95.90;;;;;;5115626;28;20384;-67
2022/05/12 05:30:30;;;;;;;;;;;19.80;95.60;;;;;;5116876;28;20024;-66
2022/05/12 05:32:56;;;;;;;2.30;1.02;;;19.80;95.70;;;;;;5115787;28;19904;-67
2022/05/12 05:35:22;;;;;;;1.98;1.50;;;19.70;95.90;;;;;;5114459;28;20496;-66
2022/05/12 05:37:49;;;;;;;4.75;1.80;;;19.80;96.00;;;;;;5114270;28;20019;-66
2022/05/12 05:40:17;;;;;;;3.17;1.33;;;19.80;96.20;;;;;;5114982;28;20019;-66
2022/05/12 05:42:43;;;;;;;3.67;1.10;;;19.80;96.00;;;;;;5113960;28;20072;-66
2022/05/12 05:45:15;;;;;;;3.55;1.20;;;19.80;96.20;;;;;;5113667;28;20023;-66
2022/05/12 05:47:45;;;;;;;4.00;1.30;;;19.80;96.30;;;;;;5113352;28;20383;-66
2022/05/12 05:50:12;;;;;;;2.63;1.13;;;19.80;96.40;;;;;;5113956;28;20460;-66
2022/05/12 05:55:22;;;;;;;4.78;1.35;;;19.90;96.30;;;;;;5113590;28;20485;-65
2022/05/12 05:57:48;;;;;;;2.08;1.33;;;20.00;96.20;;;;;;5114040;28;20099;-66
2022/05/12 06:00:15;;;;;;;5.90;1.40;;;20.10;96.00;;;;;;5114006;28;20102;-66
2022/05/12 06:02:41;;;;;;;3.47;1.10;;;20.20;96.20;;;;;;5113627;28;20365;-65
2022/05/12 06:05:07;;;;;;;;;;;20.20;95.90;;;;;;5113995;28;20024;-66
2022/05/12 06:07:37;;;;;;;7.40;1.77;;;20.20;96.30;;;;;;5114023;28;20421;-65
2022/05/12 06:10:06;;;;;;;4.05;1.20;;;20.10;96.30;;;;;;5113551;28;20039;-67
2022/05/12 06:12:32;;;;;;;3.88;1.17;;;20.10;96.50;;;;;;5113865;28;20096;-66
2022/05/12 06:14:58;;;;;;;4.95;1.30;;;20.10;96.50;;;;;;5113559;28;20464;-67
2022/05/12 06:17:23;;;;;;;2.45;1.40;;;20.20;96.50;;;;;;5114903;28;20099;-65
2022/05/12 06:19:52;;;;;;;1.65;1.05;;;20.30;96.40;;;;;;5118431;28;20038;-66
2022/05/12 06:22:19;;;;;;;3.42;1.40;;;20.30;96.30;;;;;;5117967;28;20028;-66
2022/05/12 06:24:47;;;;;;;3.33;1.52;;;20.40;96.20;;;;;;5116383;28;20464;-66
2022/05/12 06:27:14;;;;;;;2.17;1.40;;;20.40;96.10;;;;;;5117646;28;20031;-66
2022/05/12 06:29:41;;;;;;;2.90;1.40;;;20.50;96.10;;;;;;5116343;28;20110;-66
2022/05/12 06:32:07;;;;;;;4.15;1.42;;;20.50;96.10;;;;;;5117406;28;20487;-66
2022/05/12 06:34:34;;;;;;;2.60;1.15;;;20.40;96.20;;;;;;5117374;28;20429;-65
2022/05/12 06:37:00;;;;;;;3.72;1.40;;;20.40;96.00;;;;;;5117484;28;20031;-65
2022/05/12 06:39:26;;;;;;;3.97;1.20;;;20.40;96.40;;;;;;5117848;28;20456;-66
2022/05/12 06:41:53;;;;;;;;;;;20.50;95.90;;;;;;5118030;28;20027;-66
2022/05/12 06:44:19;;;;;;;3.60;1.45;;;20.50;95.80;;;;;;5117154;28;19908;-66
2022/05/12 06:46:45;;;;;;;6.20;2.17;;;20.60;95.40;;;;;;5117377;28;20028;-66
2022/05/12 06:49:11;;;;;;;10.88;6.32;;;20.60;95.20;;;;;;5117169;28;20528;-66
2022/05/12 06:51:37;;;;;;;5.05;1.73;;;20.60;95.00;;;;;;5116342;28;20050;-65
2022/05/12 06:54:03;;;;;;;4.63;1.60;;;20.70;95.00;;;;;;5117759;28;20028;-66
2022/05/12 06:56:29;;;;;;;4.47;1.75;;;20.70;95.00;;;;;;5117714;28;20020;-67
2022/05/12 06:58:54;;;;;;;7.97;1.77;;;20.90;95.10;;;;;;5116856;28;20034;-66
2022/05/12 07:01:20;;;;;;;3.00;1.58;;;21.00;94.70;;;;;;5118907;28;20015;-66
2022/05/12 07:03:45;;;;;;;4.75;1.58;;;21.00;94.10;;;;;;5118739;28;20115;-67
2022/05/12 07:06:12;;;;;;;13.48;2.20;;;21.00;94.10;;;;;;5118426;28;20087;-66
2022/05/12 07:08:41;;;;;;;9.40;2.33;;;21.00;94.00;;;;;;5116691;28;20036;-67
2022/05/12 07:11:07;;;;;;;4.70;1.45;;;20.90;94.20;;;;;;5117512;28;20496;-67
2022/05/12 07:13:33;;;;;;;3.25;1.30;;;20.90;94.10;;;;;;5117095;28;20051;-65
2022/05/12 07:16:00;;;;;;;2.92;1.30;;;21.10;94.20;;;;;;5117881;28;20016;-66
2022/05/12 07:18:26;;;;;;;4.13;1.50;;;21.20;94.00;;;;;;5119404;28;20023;-66
2022/05/12 07:26:40;;;;;;;3.13;1.58;;;21.20;94.00;;;;;;5117711;28;20080;-65
2022/05/12 07:29:12;;;;;;;6.85;1.70;;;21.20;93.70;;;;;;5116654;28;20027;-65
2022/05/12 07:31:38;;;;;;;6.20;1.40;;;21.10;94.10;;;;;;5116807;28;20057;-65
2022/05/12 07:34:04;;;;;;;;;;;21.10;94.00;;;;;;5116118;28;20122;-65
2022/05/12 07:36:33;;;;;;;8.25;1.67;;;21.00;94.20;;;;;;5117912;28;19954;-66
2022/05/12 07:39:00;;;;;;;4.65;1.45;;;20.90;94.70;;;;;;5116723;28;20472;-64
2022/05/12 07:41:26;;;;;;;4.43;1.48;;;21.00;94.90;;;;;;5115593;28;20575;-64
2022/05/12 07:43:52;;;;;;;;;;;21.00;94.50;;;;;;5117219;28;20084;-65
2022/05/12 07:46:27;;;;;;;7.50;2.37;;;21.10;94.30;;;;;;5116771;28;19945;-65
2022/05/12 07:48:53;;;;;;;4.03;1.17;;;21.20;93.90;;;;;;5116414;28;20082;-66
2022/05/12 07:51:20;;;;;;;12.05;1.63;;;21.20;93.80;;;;;;5116554;28;20471;-67
2022/05/12 07:53:47;;;;;;;3.47;1.75;;;21.30;93.70;;;;;;5116958;28;20028;-66
2022/05/12 07:56:15;;;;;;;5.10;1.60;;;21.50;93.60;;;;;;5117413;28;20068;-66
2022/05/12 07:58:40;;;;;;;3.80;1.40;;;22.60;92.50;;;;;;5116880;28;20024;-65
2022/05/12 08:01:06;;;;;;;4.35;1.25;;;23.90;90.50;;;;;;5117676;28;20051;-66
2022/05/12 08:03:32;;;;;;;;;;;24.40;88.50;;;;;;5117987;28;20414;-66
2022/05/12 08:06:02;;;;;;;3.63;1.23;;;24.30;88.00;;;;;;5117211;28;19911;-66
2022/05/12 08:08:28;;;;;;;6.13;1.70;;;24.20;88.50;;;;;;5117176;28;20080;-66
2022/05/12 08:10:54;;;;;;;9.05;1.98;;;24.00;88.70;;;;;;5117534;28;20051;-65
2022/05/12 08:13:21;;;;;;;6.80;1.35;;;23.90;89.20;;;;;;5116563;28;20024;-66
2022/05/12 08:15:50;;;;;;;6.32;1.42;;;24.70;87.50;;;;;;5116256;28;20392;-65
2022/05/12 08:18:17;;;;;;;5.57;1.20;;;26.20;84.70;;;;;;5116170;28;20019;-64
2022/05/12 08:20:44;;;;;;;4.15;1.02;;;27.80;80.10;;;;;;5116345;28;20023;-65
2022/05/12 08:23:11;;;;;;;2.03;1.02;;;28.60;76.20;;;;;;5116586;28;20023;-66
2022/05/12 08:25:36;;;;;;;2.00;1.02;;;29.60;74.20;;;;;;5115231;28;20399;-66
2022/05/12 08:28:02;;;;;;;3.95;1.05;;;30.60;71.00;;;;;;5116128;28;20032;-65
2022/05/12 08:30:30;;;;;;;3.15;1.20;;;30.80;69.20;;;;;;5114866;28;20440;-65
2022/05/12 08:32:56;;;;;;;11.95;1.35;;;31.40;68.20;;;;;;5116021;28;20027;-68
2022/05/12 08:35:23;;;;;;;6.72;1.55;;;32.10;66.00;;;;;;5116092;28;20043;-66
2022/05/12 08:37:48;;;;;;;5.18;1.55;;;32.70;64.80;;;;;;5115718;28;20012;-65
2022/05/12 08:40:28;;;;;;;3.97;1.00;;;33.20;63.90;;;;;;5115096;28;20383;-65
2022/05/12 08:42:59;;;;;;;5.05;1.27;;;34.00;62.00;;;;;;5115580;28;20086;-64
2022/05/12 08:45:25;;;;;;;5.38;1.40;;;34.00;60.30;;;;;;5115612;28;20019;-65
2022/05/12 08:47:51;;;;;;;2.38;1.25;;;34.10;60.00;;;;;;5115117;28;20471;-65
2022/05/12 08:50:36;;;;;;;6.10;1.10;;;33.80;59.70;;;;;;5115042;28;20091;-65
2022/05/12 08:53:06;;;;;;;4.07;1.10;;;34.20;59.00;;;;;;5114932;28;20012;-65
2022/05/12 08:55:34;;;;;;;2.95;1.15;;;34.70;58.40;;;;;;5113351;28;20027;-66
2022/05/12 08:58:06;;;;;;;2.70;1.33;;;35.30;57.40;;;;;;5114941;28;20019;-66
2022/05/12 09:00:46;;;;;;;4.18;1.35;;;35.60;56.70;;;;;;5113174;28;20030;-66
2022/05/12 09:03:39;;;;;;;5.07;1.65;;;35.30;56.50;;;;;;5113053;28;20364;-65
2022/05/12 09:06:09;;;;;;;4.40;1.20;;;35.20;56.00;;;;;;5114761;28;20030;-65
2022/05/12 09:08:39;;;;;;;3.85;1.27;;;35.60;55.50;;;;;;5114548;28;20024;-65
2022/05/12 09:11:26;;;;;;;3.25;1.10;;;34.60;55.90;;;;;;5114904;28;20024;-66
2022/05/12 09:13:53;;;;;;;2.97;1.02;;;34.50;55.90;;;;;;5114494;28;20035;-65
2022/05/12 09:16:25;;;;;;;5.78;1.48;;;33.00;57.40;;;;;;5114493;28;20114;-66
2022/05/12 09:18:53;;;;;;;3.38;1.17;;;32.50;58.50;;;;;;5114401;28;20028;-66
2022/05/12 09:21:24;;;;;;;4.88;1.75;;;32.60;58.20;;;;;;5114530;28;20083;-65
2022/05/12 09:23:50;;;;;;;2.65;1.30;;;32.80;58.30;;;;;;5114477;27;20499;-66
2022/05/12 09:26:46;;;;;;;3.35;1.00;;;33.50;57.90;;;;;;5114742;28;20108;-66
2022/05/12 09:29:29;;;;;;;3.47;1.15;;;33.50;57.50;;;;;;5115190;28;20024;-66
2022/05/12 09:32:03;;;;;;;4.47;1.10;;;33.50;57.70;;;;;;5114339;28;20019;-67
2022/05/12 09:34:36;;;;;;;3.42;1.30;;;32.90;57.40;;;;;;5114172;28;20035;-68
2022/05/12 09:37:20;;;;;;;3.55;1.42;;;31.10;59.20;;;;;;5112869;28;20027;-64
2022/05/12 09:39:52;;;;;;;2.40;1.60;;;29.00;62.40;;;;;;5114676;28;20019;-65
2022/05/12 09:42:27;;;;;;;4.55;1.52;;;27.90;64.70;;;;;;5114663;28;20020;-65
2022/05/12 09:45:00;;;;;;;5.70;1.70;;;27.20;66.20;;;;;;5113898;28;20479;-65
2022/05/12 09:47:27;;;;;;;4.40;1.50;;;26.80;67.40;;;;;;5114282;28;20100;-66
2022/05/12 09:50:24;;;;;;;5.65;1.30;;;27.90;66.50;;;;;;5112736;28;20397;-66
2022/05/12 09:53:01;;;;;;;6.43;1.35;;;29.00;64.40;;;;;;5113351;28;20608;-66
2022/05/12 09:55:31;;;;;;;3.10;1.17;;;30.30;62.30;;;;;;5112510;28;20031;-65
2022/05/12 09:58:41;;;;;;;4.20;1.58;;;30.70;61.40;;;;;;5114630;28;20024;-64
2022/05/12 10:01:22;;;;;;;4.97;1.23;;;32.00;60.00;;;;;;5114438;28;20029;-65
2022/05/12 10:09:29;;;;;;;4.95;1.40;;;34.10;56.80;;;;;;5114968;28;20079;-67
2022/05/12 10:12:14;;;;;;;6.10;1.20;;;34.30;56.10;;;;;;5113997;28;20027;-64
2022/05/12 10:15:01;;;;;;;3.30;1.27;;;34.40;55.70;;;;;;5113983;28;20023;-65
2022/05/12 10:17:55;;;;;;;4.30;1.33;;;34.70;55.30;;;;;;5112455;28;20143;-65
2022/05/12 10:20:23;;;;;;;4.82;1.20;;;35.30;54.80;;;;;;5113845;28;20039;-65
2022/05/12 10:23:05;;;;;;;5.65;1.25;;;35.30;54.40;;;;;;5113881;28;20384;-66
2022/05/12 10:25:47;;;;;;;5.50;1.30;;;32.50;55.70;;;;;;5113375;28;20032;-65
2022/05/12 10:28:24;;;;;;;4.10;1.33;;;30.80;58.20;;;;;;5114293;28;20051;-64
2022/05/12 10:31:03;;;;;;;2.47;1.20;;;30.00;59.90;;;;;;5113979;28;20032;-64
2022/05/12 10:33:52;;;;;;;4.57;1.13;;;30.30;60.10;;;;;;5114568;28;20043;-65
2022/05/12 10:36:28;;;;;;;4.78;1.58;;;32.00;58.80;;;;;;5113770;28;20047;-65
2022/05/12 10:39:13;;;;;;;4.13;1.17;;;33.40;57.00;;;;;;5113956;28;20031;-66
2022/05/12 10:42:18;;;;;;;5.03;1.73;;;33.40;56.10;;;;;;5113964;28;20076;-67
2022/05/12 10:45:26;;;;;;;4.13;1.38;;;32.40;57.10;;;;;;5090754;28;20032;-66
2022/05/12 10:48:19;;;;;;;3.25;1.35;;;32.00;58.30;;;;;;5114625;28;20543;-65
2022/05/12 10:51:02;;;;;;;3.85;1.38;;;33.40;57.10;;;;;;5113524;28;20499;-65
2022/05/12 10:53:51;;;;;;;5.97;1.58;;;34.60;55.70;;;;;;5113767;28;20399;-64
2022/05/12 10:56:41;;;;;;;3.83;1.50;;;35.50;54.70;;;;;;5114088;28;20506;-65
2022/05/12 10:59:46;;;;;;;1.83;1.20;;;34.80;54.20;;;;;;5115682;28;20076;-66
2022/05/12 11:02:25;;;;;;;5.15;1.50;;;34.40;55.50;;;;;;5113343;28;20035;-67
2022/05/12 11:05:00;;;;;;;4.10;1.27;;;34.10;55.30;;;;;;5119900;28;20018;-64
2022/05/12 11:07:36;;;;;;;8.90;3.80;;;32.70;56.70;;;;;;5118337;28;20348;-66
2022/05/12 11:10:08;;;;;;;5.03;1.98;;;31.20;58.30;;;;;;5119427;28;20069;-66
2022/05/12 11:12:45;;;;;;;6.30;4.40;;;30.30;59.60;;;;;;5118690;28;20023;-66
2022/05/12 11:15:21;;;;;;;7.43;1.67;;;29.60;61.20;;;;;;5119884;28;20409;-66
2022/05/12 11:18:05;;;;;;;6.35;1.35;;;29.00;62.20;;;;;;5120208;28;20476;-66
2022/05/12 11:20:34;;;;;;;7.72;1.27;;;28.20;63.20;;;;;;5121291;28;20368;-66
2022/05/12 11:23:12;;;;;;;7.47;1.90;;;27.90;63.80;;;;;;5122102;28;20047;-66
2022/05/12 11:26:04;;;;;;;4.63;2.47;;;27.60;64.90;;;;;;5121734;28;20443;-66
2022/05/12 11:31:38;;;;;;;4.45;1.80;;;27.30;65.60;;;;;;5120320;28;20395;-66
2022/05/12 11:34:10;;;;;;;4.60;1.30;;;27.10;66.00;;;;;;5116648;28;20131;-67
2022/05/12 11:36:40;;;;;;;5.25;1.60;;;26.80;66.50;;;;;;5116351;28;20571;-65
2022/05/12 11:39:31;;;;;;;5.70;1.80;;;26.60;66.20;;;;;;5116772;28;20026;-66
2022/05/12 11:42:21;;;;;;;6.05;1.98;;;26.30;66.40;;;;;;5117097;28;20015;-66
2022/05/12 11:45:03;;;;;;;3.00;1.77;;;26.20;67.50;;;;;;5118911;28;20023;-67
2022/05/12 11:48:09;;;;;;;2.47;1.65;;;26.20;67.90;;;;;;5117843;28;20043;-66
2022/05/12 11:50:52;;;;;;;2.28;1.20;;;26.00;67.50;;;;;;5118250;28;20020;-66
2022/05/12 11:53:27;;;;;;;4.75;1.20;;;26.00;67.90;;;;;;5118640;28;20502;-65
2022/05/12 11:56:05;;;;;;;5.23;1.27;;;26.00;68.00;;;;;;5118733;28;20028;-66
2022/05/12 11:58:46;;;;;;;5.22;1.63;;;25.90;67.70;;;;;;5116218;28;20020;-66
2022/05/12 12:01:22;;;;;;;2.90;1.58;;;25.80;68.10;;;;;;5114727;28;20043;-65
2022/05/12 12:03:54;;;;;;;2.63;1.50;;;25.70;68.30;;;;;;5116628;28;20023;-65
2022/05/12 12:06:42;;;;;;;2.97;1.40;;;25.80;68.90;;;;;;5115767;28;20042;-65
2022/05/12 12:09:31;;;;;;;5.88;1.80;;;25.90;68.90;;;;;;5115955;28;20028;-65
2022/05/12 12:11:57;;;;;;;2.35;1.52;;;26.00;68.90;;;;;;5116624;28;20062;-66
2022/05/12 12:14:41;;;;;;;;;;;26.00;68.90;;;;;;5115442;28;20028;-67
2022/05/12 12:17:27;;;;;;;3.47;1.55;;;25.90;68.70;;;;;;5114419;28;20350;-67
2022/05/12 12:19:56;;;;;;;5.35;1.52;;;25.90;69.00;;;;;;5117291;28;20043;-66
2022/05/12 12:22:47;;;;;;;2.35;1.67;;;26.00;69.10;;;;;;5116035;28;20429;-65
2022/05/12 12:25:19;;;;;;;3.75;1.30;;;26.00;69.40;;;;;;5116147;28;20077;-66
2022/05/12 12:27:57;;;;;;;2.55;1.42;;;26.00;69.10;;;;;;5116313;28;20375;-66
2022/05/12 12:30:25;;;;;;;2.88;1.30;;;25.90;68.60;;;;;;5115807;28;20476;-66
2022/05/12 12:33:20;;;;;;;4.47;1.58;;;25.80;68.80;;;;;;5114585;28;20035;-66
2022/05/12 12:36:04;;;;;;;6.78;1.70;;;25.90;68.90;;;;;;5116162;28;20551;-66
2022/05/12 12:38:48;;;;;;;2.95;1.40;;;25.80;69.10;;;;;;5115197;28;20020;-66
2022/05/12 12:41:22;;;;;;;3.15;1.50;;;25.90;69.10;;;;;;5116552;28;20102;-66
2022/05/12 12:43:57;;;;;;;4.05;1.60;;;26.00;69.00;;;;;;5115129;28;20023;-65
2022/05/12 12:46:28;;;;;;;3.83;1.58;;;26.20;68.70;;;;;;5116288;28;20434;-67
2022/05/12 12:48:59;;;;;;;3.42;1.48;;;26.40;68.60;;;;;;5115267;28;20031;-66
2022/05/12 12:51:34;;;;;;;2.20;1.50;;;26.40;68.90;;;;;;5115435;28;20455;-66
2022/05/12 12:57:12;;;;;;;3.55;1.38;;;26.40;68.20;;;;;;5114664;28;20501;-67
2022/05/12 12:59:54;;;;;;;5.53;1.48;;;26.30;68.00;;;;;;5113079;28;20027;-67
2022/05/12 13:02:28;;;;;;;2.35;1.20;;;26.50;68.30;;;;;;5113077;28;20024;-66
2022/05/12 13:04:56;;;;;;;5.57;1.50;;;26.60;67.90;;;;;;5113374;28;20016;-66
2022/05/12 13:07:29;;;;;;;3.72;1.60;;;26.50;67.90;;;;;;5115645;28;20433;-65
2022/05/12 13:09:56;;;;;;;1.98;1.10;;;26.40;67.60;;;;;;5114356;28;20019;-66
2022/05/12 13:12:26;;;;;;;2.05;1.48;;;26.60;67.60;;;;;;5114678;28;20503;-65
2022/05/12 13:14:53;;;;;;;4.88;1.67;;;26.80;67.60;;;;;;5114613;28;20031;-65
2022/05/12 13:17:28;;;;;;;5.68;1.60;;;26.90;67.60;;;;;;5114216;28;20046;-64
2022/05/12 13:19:58;;;;;;;1.58;1.48;;;27.00;67.20;;;;;;5114190;28;20023;-66
2022/05/12 13:22:36;;;;;;;2.97;1.70;;;27.00;67.00;;;;;;5114136;28;20039;-65
2022/05/12 13:25:02;;;;;;;3.30;1.60;;;26.90;67.50;;;;;;5114214;28;20341;-65
2022/05/12 13:27:35;;;;;;;3.30;1.40;;;26.80;67.60;;;;;;5113710;28;20051;-65
2022/05/12 13:30:00;;;;;;;3.92;1.90;;;26.80;67.80;;;;;;5112791;28;20043;-65
2022/05/12 13:32:43;;;;;;;3.10;2.00;;;26.80;68.10;;;;;;5113758;28;20020;-65